createdAt,value
2024-05-09T00:03:48.154Z,9.34
2024-05-09T00:08:49.984Z,9.44
2024-05-09T00:13:51.867Z,9.50
2024-05-09T00:18:54.046Z,9.26
2024-05-09T00:23:55.911Z,9.15
2024-05-09T00:28:57.612Z,9.21
2024-05-09T00:33:59.496Z,9.15
2024-05-09T00:39:01.193Z,9.02
2024-05-09T00:44:03.081Z,8.95
2024-05-09T00:49:05.428Z,8.91
2024-05-09T00:54:07.205Z,8.83
2024-05-09T00:59:09.091Z,8.75
2024-05-09T01:04:11.551Z,8.68
2024-05-09T01:09:13.319Z,8.71
2024-05-09T01:14:15.034Z,8.58
2024-05-09T01:19:26.706Z,8.55
2024-05-09T01:24:28.656Z,8.54
2024-05-09T01:29:30.645Z,8.56
2024-05-09T01:34:32.382Z,8.54
2024-05-09T01:39:34.014Z,8.51
2024-05-09T01:44:35.729Z,8.49
2024-05-09T01:49:37.741Z,8.42
2024-05-09T01:54:39.492Z,8.40
2024-05-09T01:59:41.424Z,8.34
2024-05-09T02:04:46.288Z,8.26
2024-05-09T02:09:51.511Z,8.30
2024-05-09T02:14:53.173Z,8.21
2024-05-09T02:19:54.984Z,8.27
2024-05-09T02:24:56.814Z,8.21
2024-05-09T02:29:58.464Z,8.17
2024-05-09T02:35:00.279Z,8.10
2024-05-09T02:40:01.986Z,8.22
2024-05-09T02:45:03.783Z,8.20
2024-05-09T02:50:07.861Z,8.16
2024-05-09T02:55:09.775Z,8.02
2024-05-09T03:00:18.518Z,7.93
2024-05-09T03:05:24.203Z,7.81
2024-05-09T03:10:28.943Z,7.77
2024-05-09T03:15:36.293Z,7.73
2024-05-09T03:20:39.141Z,7.67
2024-05-09T03:25:41.206Z,7.58
2024-05-09T03:30:43.426Z,7.60
2024-05-09T03:35:45.439Z,7.56
2024-05-09T03:40:48.189Z,7.56
2024-05-09T03:45:50.712Z,7.60
2024-05-09T03:50:52.622Z,7.64
2024-05-09T03:55:57.004Z,7.68
2024-05-09T04:00:58.769Z,7.80
2024-05-09T04:06:00.487Z,7.96
2024-05-09T04:11:02.341Z,8.35
2024-05-09T04:16:04.168Z,8.79
2024-05-09T04:21:06.458Z,9.02
2024-05-09T04:26:08.826Z,9.65
2024-05-09T04:31:10.586Z,9.95
2024-05-09T04:36:12.299Z,10.52
2024-05-09T04:41:13.965Z,10.59
2024-05-09T04:46:15.641Z,11.48
2024-05-09T04:51:17.357Z,11.84
2024-05-09T04:56:19.230Z,11.90
2024-05-09T05:01:20.956Z,12.65
2024-05-09T05:06:22.634Z,12.92
2024-05-09T05:11:24.392Z,13.45
2024-05-09T05:16:26.076Z,13.40
2024-05-09T05:21:28.455Z,13.68
2024-05-09T05:26:30.232Z,14.17
2024-05-09T05:31:32.040Z,14.12
2024-05-09T05:36:33.835Z,14.48
2024-05-09T05:41:35.640Z,14.55
2024-05-09T05:46:37.332Z,14.41
2024-05-09T05:51:39.200Z,14.76
2024-05-09T05:56:40.944Z,14.62
2024-05-09T06:01:42.771Z,14.84
2024-05-09T06:06:44.528Z,15.24
2024-05-09T06:11:46.498Z,15.88
2024-05-09T06:16:48.277Z,15.51
2024-05-09T06:21:50.098Z,15.50
2024-05-09T06:26:51.789Z,15.93
2024-05-09T06:31:54.407Z,16.10
2024-05-09T06:36:57.031Z,17.16
2024-05-09T06:41:59.114Z,16.97
2024-05-09T06:47:00.898Z,17.68
2024-05-09T06:52:02.645Z,16.69
2024-05-09T06:57:04.965Z,16.74
2024-05-09T07:02:06.769Z,16.22
2024-05-09T07:07:09.435Z,17.39
2024-05-09T07:12:11.265Z,17.58
2024-05-09T07:17:13.279Z,16.93
2024-05-09T07:22:15.035Z,16.83
2024-05-09T07:27:16.679Z,17.20
2024-05-09T07:32:18.422Z,17.66
2024-05-09T07:37:20.124Z,17.59
2024-05-09T07:42:21.829Z,17.02
2024-05-09T07:48:49.034Z,16.80
2024-05-09T07:53:34.607Z,17.94
2024-05-09T07:58:08.420Z,17.49
2024-05-09T08:03:10.593Z,18.06
2024-05-09T08:08:12.292Z,17.70
2024-05-09T08:13:14.211Z,17.51
2024-05-09T08:18:16.216Z,17.96
2024-05-09T08:23:18.022Z,17.71
2024-05-09T08:28:19.862Z,18.62
2024-05-09T08:33:21.654Z,17.71
2024-05-09T08:38:23.389Z,18.10
2024-05-09T08:43:25.168Z,18.33
2024-05-09T08:48:27.075Z,17.83
2024-05-09T08:53:28.838Z,17.98
2024-05-09T08:58:33.570Z,17.05
2024-05-09T09:03:35.427Z,17.26
2024-05-09T09:08:40.335Z,16.19
2024-05-09T09:13:42.066Z,16.24
2024-05-09T09:18:44.323Z,17.65
2024-05-09T09:23:46.153Z,17.32
2024-05-09T09:28:47.841Z,16.25
2024-05-09T09:33:49.968Z,17.54
2024-05-09T09:38:52.049Z,18.11
2024-05-09T09:43:53.833Z,18.65
2024-05-09T09:48:55.556Z,19.28
2024-05-09T09:53:57.318Z,18.11
2024-05-09T09:58:59.275Z,17.97
2024-05-09T10:04:01.192Z,18.79
2024-05-09T10:09:02.964Z,17.44
2024-05-09T10:14:04.781Z,16.97
2024-05-09T10:19:06.635Z,17.85
2024-05-09T10:24:08.366Z,18.53
2024-05-09T10:29:13.733Z,17.89
2024-05-09T10:34:19.700Z,17.54
2024-05-09T10:39:21.613Z,17.27
2024-05-09T10:44:23.247Z,18.57
2024-05-09T10:49:25.034Z,18.27
2024-05-09T10:54:35.724Z,18.30
2024-05-09T10:59:39.362Z,18.63
2024-05-09T11:04:41.396Z,17.78
2024-05-09T11:09:43.290Z,18.57
2024-05-09T11:14:54.646Z,19.06
2024-05-09T11:19:56.506Z,18.73
2024-05-09T11:24:58.440Z,19.17
2024-05-09T11:30:01.198Z,19.18
2024-05-09T11:35:02.866Z,18.91
2024-05-09T11:40:07.073Z,18.87
2024-05-09T11:45:13.218Z,18.76
2024-05-09T11:50:22.555Z,19.49
2024-05-09T11:55:36.223Z,17.90
2024-05-09T12:00:38.207Z,18.05
2024-05-09T12:05:40.043Z,18.39
2024-05-09T12:10:41.946Z,18.92
2024-05-09T12:15:43.938Z,18.92
2024-05-09T12:20:45.685Z,19.90
2024-05-09T12:25:47.418Z,18.55
2024-05-09T12:30:50.612Z,17.84
2024-05-09T12:35:52.330Z,18.11
2024-05-09T12:40:54.326Z,18.14
2024-05-09T12:45:56.353Z,17.67
2024-05-09T12:50:58.269Z,17.90
2024-05-09T12:56:02.413Z,17.74
2024-05-09T13:01:05.698Z,18.59
2024-05-09T13:06:07.372Z,17.76
2024-05-09T13:11:09.280Z,18.23
2024-05-09T13:16:11.068Z,17.73
2024-05-09T13:21:12.778Z,17.57
2024-05-09T13:26:14.420Z,17.88
2024-05-09T13:31:16.134Z,17.80
2024-05-09T13:36:17.850Z,17.94
2024-05-09T13:41:19.523Z,18.10
2024-05-09T13:46:21.585Z,17.66
2024-05-09T13:51:23.715Z,17.50
2024-05-09T13:56:25.570Z,17.22
2024-05-09T14:01:27.432Z,17.47
2024-05-09T14:06:29.168Z,17.78
2024-05-09T14:11:31.276Z,17.84
2024-05-09T14:16:33.252Z,17.52
2024-05-09T14:21:35.046Z,17.56
2024-05-09T14:26:36.776Z,17.60
2024-05-09T14:31:39.767Z,17.65
2024-05-09T14:36:41.656Z,17.60
2024-05-09T14:41:43.410Z,17.67
2024-05-09T14:46:45.181Z,17.93
2024-05-09T14:51:47.735Z,17.65
2024-05-09T14:56:49.396Z,17.42
2024-05-09T15:01:51.243Z,17.45
2024-05-09T15:06:53.019Z,17.38
2024-05-09T15:11:54.767Z,17.42
2024-05-09T15:16:57.323Z,17.39
2024-05-09T15:21:59.264Z,17.43
2024-05-09T15:27:01.105Z,17.54
2024-05-09T15:32:02.811Z,17.67
2024-05-09T15:37:04.707Z,17.61
2024-05-09T15:42:06.642Z,17.63
2024-05-09T15:47:08.331Z,17.42
2024-05-09T15:52:10.181Z,17.45
2024-05-09T15:57:12.306Z,17.32
2024-05-09T16:02:14.304Z,17.41
2024-05-09T16:07:16.416Z,17.36
2024-05-09T16:12:18.087Z,17.36
2024-05-09T16:17:19.792Z,17.39
2024-05-09T16:22:21.501Z,17.42
2024-05-09T16:27:23.409Z,17.28
2024-05-09T16:32:25.218Z,17.34
2024-05-09T16:37:29.553Z,17.31
2024-05-09T16:42:31.460Z,17.32
2024-05-09T16:47:33.500Z,17.30
2024-05-09T16:52:35.289Z,17.38
2024-05-09T16:57:37.008Z,17.28
2024-05-09T17:02:39.824Z,17.18
2024-05-09T17:07:41.687Z,17.12
2024-05-09T17:12:43.410Z,17.07
2024-05-09T17:17:45.137Z,17.01
2024-05-09T17:22:46.862Z,17.00
2024-05-09T17:27:48.610Z,16.79
2024-05-09T17:32:50.490Z,16.65
2024-05-09T17:37:52.232Z,16.43
2024-05-09T17:42:54.527Z,16.51
2024-05-09T17:47:56.642Z,16.31
2024-05-09T17:52:58.498Z,16.20
2024-05-09T17:58:00.889Z,16.15
2024-05-09T18:03:02.947Z,15.95
2024-05-09T18:08:06.151Z,15.61
2024-05-09T18:13:09.021Z,15.43
2024-05-09T18:18:11.477Z,15.32
2024-05-09T18:23:14.838Z,15.16
2024-05-09T18:28:17.995Z,14.92
2024-05-09T18:33:20.631Z,14.80
2024-05-09T18:38:26.617Z,14.53
2024-05-09T18:43:35.157Z,14.29
2024-05-09T18:48:43.830Z,14.22
2024-05-09T18:53:46.237Z,14.09
2024-05-09T18:58:48.020Z,14.02
2024-05-09T19:03:50.449Z,13.99
2024-05-09T19:08:52.309Z,13.85
2024-05-09T19:13:54.238Z,13.84
2024-05-09T19:18:57.006Z,13.79
2024-05-09T19:23:58.826Z,13.72
2024-05-09T19:29:00.511Z,13.66
2024-05-09T19:34:02.345Z,13.62
2024-05-09T19:39:04.394Z,13.49
2024-05-09T19:44:06.239Z,13.55
2024-05-09T19:49:08.152Z,13.52
2024-05-09T19:54:10.639Z,13.32
2024-05-09T19:59:12.940Z,13.33
2024-05-09T20:04:14.851Z,13.21
2024-05-09T20:09:16.587Z,13.27
2024-05-09T20:14:18.280Z,13.38
2024-05-09T20:19:20.486Z,13.17
2024-05-09T20:24:22.294Z,12.97
2024-05-09T20:29:24.013Z,12.86
2024-05-09T20:34:25.822Z,12.81
2024-05-09T20:39:27.601Z,12.78
2024-05-09T20:44:29.334Z,12.83
2024-05-09T20:49:31.081Z,12.81
2024-05-09T20:54:32.951Z,12.73
2024-05-09T20:59:34.622Z,12.75
2024-05-09T21:04:36.457Z,12.77
2024-05-09T21:09:38.446Z,12.72
2024-05-09T21:14:40.318Z,12.64
2024-05-09T21:19:41.998Z,12.58
2024-05-09T21:24:43.726Z,12.48
2024-05-09T21:29:45.454Z,12.52
2024-05-09T21:34:47.173Z,12.36
2024-05-09T21:39:49.333Z,12.12
2024-05-09T21:44:51.172Z,12.12
2024-05-09T21:49:52.964Z,12.06
2024-05-09T21:54:54.623Z,11.99
2024-05-09T21:59:56.377Z,11.96
2024-05-09T22:04:58.212Z,12.04
2024-05-09T22:10:00.155Z,12.09
2024-05-09T22:15:02.032Z,11.99
2024-05-09T22:20:11.648Z,11.97
2024-05-09T22:25:16.610Z,11.83
2024-05-09T22:30:23.981Z,11.75
2024-05-09T22:35:33.026Z,11.76
2024-05-09T22:40:45.415Z,11.85
2024-05-09T22:45:50.623Z,11.84
2024-05-09T22:50:53.134Z,11.79
2024-05-09T22:55:54.846Z,11.73
2024-05-09T23:00:56.598Z,11.67
2024-05-09T23:05:58.439Z,11.53
2024-05-09T23:11:00.273Z,11.40
2024-05-09T23:16:02.466Z,11.39
2024-05-09T23:21:04.488Z,11.39
2024-05-09T23:26:06.142Z,11.21
2024-05-09T23:31:08.095Z,11.15
2024-05-09T23:36:09.867Z,11.00
2024-05-09T23:41:11.661Z,10.86
2024-05-09T23:46:13.611Z,10.65
2024-05-09T23:51:15.400Z,10.57
2024-05-09T23:56:17.228Z,10.72
